Observations for LOSSIEMOUTH RAF, United Kingdom (EGQS)

EGQS 250250Z 25016KT 9999 FEW018CB 02/00 Q1004 BLU  
EGQS 250150Z 24012KT 9999 FEW011 01/00 Q1004 BLU
EGQS 250050Z 27017KT 9999 -SHRASN FEW009 FEW012CB BKN018 BKN022 03/01 Q1004 RESHRA RESHSN WHT   
EGQS 242350Z 26009KT 4500 SHRASN FEW009 FEW010CB BKN013 BKN020 02/01 Q1004 GRN TEMPO 3000 SHRASN SCT012CB YLO1  
EGQS 242329Z 30011KT 4000 SHRASN FEW008 BKN010 FEW012CB BKN016 02/01 Q1004 GRN TEMPO 3000 SHRASN SCT012CB YLO1  
EGQS 242329Z 30011KT 4000 SHRASN FEW008 BKN010 FEW012CB BKN016 02/01 Q1004 GRN TEMPO 3000 SHRASN SCT012CB YLO1
EGQS 242311Z 25012KT 3000 SHRASN FEW011 SCT017CB BKN024 02/M00 Q1004 YLO1 TEMPO 9999 NSW SCT025 BLU 
EGQS 242311Z 25012KT 3000 SHRASN FEW011 SCT017CB BKN024 02/M00 Q1004 YLO1 TEMPO9999 NSW SCT025 BLU
EGQS 242250Z 25013KT 9999 -SHRASN FEW018CB BKN022 BKN038 02/M00 Q1004 WHT   
EGQS 242150Z 25016KT 9999 FEW019 SCT190 02/M01 Q1003 BLU
EGQS 242050Z 25018KT CAVOK 02/M01 Q1003 BLU 
EGQS 241950Z 25016KT 9999 FEW020CB 02/M01 Q1003 BLU 
EGQS 241850Z 25016KT 9999 -SHRA SCT030 BKN090 BKN190 02/M00 Q1003 BLU   
EGQS 241750Z 25017KT 9999 -SHRASN FEW029CB SCT036 BKN050 02/M00 Q1002 BLU TEMPO 4000 SHRASN SCT012 BKN020CB GRN 
EGQS 241650Z 25016KT 9999 -SHRASN SCT018CB BKN050 02/M00 Q1002 WHT  
EGQS 241550Z 24014KT 9999 FEW025CB 02/M01 Q1002 BLU 
EGQS 241450Z 25016KT 9999 FEW020CB 02/M02 Q1001 BLU TEMPO 7000 -SHRASN SCT020CB WHT 
EGQS 241350Z 24013KT 9999 FEW015 03/M01 Q1001 BLU NOSIG 
EGQS 241250Z 24014KT 9999 FEW016 03/M01 Q1001 BLU TEMPO 7000 -SHRASN SCT020CB WHT   
EGQS 241150Z 24013KT 9999 FEW014 FEW020CB BKN060 02/M01 Q1002 BLU TEMPO 7000 -SHRASN SCT020CB WHT   
EGQS 241050Z 25010KT 9999 FEW014 FEW020CB 01/M01 Q1002 BLU TEMPO 7000 -SHRASN SCT020CB WHT  
EGQS 240950Z 24009KT 9999 FEW020 00/M02 Q1001 BLU NOSIG 
EGQS 240850Z 25011KT 9999 FEW020CB 00/M01 Q1001 BLU NOSIG   
EGQS 240750Z 25015KT 9999 FEW025CB BKN060 01/M00 Q1001 BLU NOSIG
EGQS 240650Z 24014KT CAVOK 01/M01 Q1001 BLU NOSIG   
EGQS 240550Z 24014KT CAVOK 01/M02 Q1001 BLU 
EGQS 240450Z 25011KT 9999 -SHRA FEW015 SCT020CB BKN100 01/00 Q1001 RESHSN RESHRA WHT
EGQS 240445Z 26010KT 9999 -SHRASN SCT015 BKN020CB 01/00 Q1001 WHT   
EGQS 240422Z 30014G25KT 3000 SHRASN SCT014 BKN020CB 02/00 Q1001 YLO1
EGQS 240422Z 30014G25KT 3000 SHRASN SCT014 BKN020CB 02/00 Q1001 YLO1
EGQS 240445Z 26010KT 9999 -SHRASN SCT015 BKN020CB 01/00 Q1001 WHT
EGQS 240350Z 26013KT 9999 -SHRASN FEW022CB BKN030 BKN100 02/M00 Q1000 BLU   
EGQS 240250Z 25015KT CAVOK 02/M01 Q0999 BLU